sensor_id;sensor_type;location;lat;lon;timestamp;temperature;humidity
38458;DHT22;24239;48.058;10.486;2022-08-30T00:01:23;14.10;99.90
38458;DHT22;24239;48.058;10.486;2022-08-30T00:03:51;14.10;99.90
38458;DHT22;24239;48.058;10.486;2022-08-30T00:06:20;14.10;99.90
38458;DHT22;24239;48.058;10.486;2022-08-30T00:08:47;14.10;99.90
38458;DHT22;24239;48.058;10.486;2022-08-30T00:11:19;14.00;99.90
38458;DHT22;24239;48.058;10.486;2022-08-30T00:13:47;13.90;99.90
38458;DHT22;24239;48.058;10.486;2022-08-30T00:16:16;14.00;99.90
38458;DHT22;24239;48.058;10.486;2022-08-30T00:18:42;14.00;99.90
38458;DHT22;24239;48.058;10.486;2022-08-30T00:21:09;14.00;99.90
38458;DHT22;24239;48.058;10.486;2022-08-30T00:23:35;14.00;99.90
38458;DHT22;24239;48.058;10.486;2022-08-30T00:26:01;14.00;99.90
38458;DHT22;24239;48.058;10.486;2022-08-30T00:28:28;13.90;99.90
38458;DHT22;24239;48.058;10.486;2022-08-30T00:30:54;13.90;99.90
38458;DHT22;24239;48.058;10.486;2022-08-30T00:33:21;13.80;99.90
38458;DHT22;24239;48.058;10.486;2022-08-30T00:35:47;13.80;99.90
38458;DHT22;24239;48.058;10.486;2022-08-30T00:38:14;13.80;99.90
38458;DHT22;24239;48.058;10.486;2022-08-30T00:40:42;13.80;99.90
38458;DHT22;24239;48.058;10.486;2022-08-30T00:43:16;13.80;99.90
38458;DHT22;24239;48.058;10.486;2022-08-30T00:45:42;13.70;99.90
38458;DHT22;24239;48.058;10.486;2022-08-30T00:48:10;13.80;99.90
38458;DHT22;24239;48.058;10.486;2022-08-30T00:50:39;13.70;99.90
38458;DHT22;24239;48.058;10.486;2022-08-30T00:53:21;13.70;99.90
38458;DHT22;24239;48.058;10.486;2022-08-30T00:55:49;13.70;99.90
38458;DHT22;24239;48.058;10.486;2022-08-30T00:58:21;13.60;99.90
38458;DHT22;24239;48.058;10.486;2022-08-30T01:00:53;13.60;99.90
38458;DHT22;24239;48.058;10.486;2022-08-30T01:03:20;13.60;99.90
38458;DHT22;24239;48.058;10.486;2022-08-30T01:05:48;13.60;99.90
38458;DHT22;24239;48.058;10.486;2022-08-30T01:08:20;13.60;99.90
38458;DHT22;24239;48.058;10.486;2022-08-30T01:10:48;13.50;99.90
38458;DHT22;24239;48.058;10.486;2022-08-30T01:13:14;13.50;99.90
38458;DHT22;24239;48.058;10.486;2022-08-30T01:15:42;13.40;99.90
38458;DHT22;24239;48.058;10.486;2022-08-30T01:18:08;13.50;99.90
38458;DHT22;24239;48.058;10.486;2022-08-30T01:21:07;13.40;99.90
38458;DHT22;24239;48.058;10.486;2022-08-30T01:23:38;13.40;99.90
38458;DHT22;24239;48.058;10.486;2022-08-30T01:26:05;13.40;99.90
38458;DHT22;24239;48.058;10.486;2022-08-30T01:28:34;13.40;99.90
38458;DHT22;24239;48.058;10.486;2022-08-30T01:31:00;13.40;99.90
38458;DHT22;24239;48.058;10.486;2022-08-30T01:33:26;13.40;99.90
38458;DHT22;24239;48.058;10.486;2022-08-30T01:35:54;13.40;99.90
38458;DHT22;24239;48.058;10.486;2022-08-30T01:38:23;13.30;99.90
38458;DHT22;24239;48.058;10.486;2022-08-30T01:40:55;13.30;99.90
38458;DHT22;24239;48.058;10.486;2022-08-30T01:43:20;13.40;99.90
38458;DHT22;24239;48.058;10.486;2022-08-30T01:45:46;13.30;99.90
38458;DHT22;24239;48.058;10.486;2022-08-30T01:48:13;13.30;99.90
38458;DHT22;24239;48.058;10.486;2022-08-30T01:50:40;13.40;99.90
38458;DHT22;24239;48.058;10.486;2022-08-30T01:53:06;13.30;99.90
38458;DHT22;24239;48.058;10.486;2022-08-30T01:55:32;13.30;99.90
38458;DHT22;24239;48.058;10.486;2022-08-30T01:57:58;13.20;99.90
38458;DHT22;24239;48.058;10.486;2022-08-30T02:00:24;13.20;99.90
38458;DHT22;24239;48.058;10.486;2022-08-30T02:02:50;13.20;99.90
38458;DHT22;24239;48.058;10.486;2022-08-30T02:05:16;13.20;99.90
38458;DHT22;24239;48.058;10.486;2022-08-30T02:07:42;13.10;99.90
38458;DHT22;24239;48.058;10.486;2022-08-30T02:10:08;13.10;99.90
38458;DHT22;24239;48.058;10.486;2022-08-30T02:12:34;13.10;99.90
38458;DHT22;24239;48.058;10.486;2022-08-30T02:15:01;13.10;99.90
38458;DHT22;24239;48.058;10.486;2022-08-30T02:17:26;13.00;99.90
38458;DHT22;24239;48.058;10.486;2022-08-30T02:19:52;13.10;99.90
38458;DHT22;24239;48.058;10.486;2022-08-30T02:22:18;13.00;99.90
38458;DHT22;24239;48.058;10.486;2022-08-30T02:24:45;13.00;99.90
38458;DHT22;24239;48.058;10.486;2022-08-30T02:27:11;13.00;99.90
38458;DHT22;24239;48.058;10.486;2022-08-30T02:29:37;13.00;99.90
38458;DHT22;24239;48.058;10.486;2022-08-30T02:32:03;13.00;99.90
38458;DHT22;24239;48.058;10.486;2022-08-30T02:34:29;13.00;99.90
38458;DHT22;24239;48.058;10.486;2022-08-30T02:36:55;12.90;99.90
38458;DHT22;24239;48.058;10.486;2022-08-30T02:39:21;12.90;99.90
38458;DHT22;24239;48.058;10.486;2022-08-30T02:41:47;12.90;99.90
38458;DHT22;24239;48.058;10.486;2022-08-30T02:44:13;12.90;99.90
38458;DHT22;24239;48.058;10.486;2022-08-30T02:46:39;12.80;99.90
38458;DHT22;24239;48.058;10.486;2022-08-30T02:49:05;12.80;99.90
38458;DHT22;24239;48.058;10.486;2022-08-30T02:51:33;12.80;99.90
38458;DHT22;24239;48.058;10.486;2022-08-30T02:54:01;12.70;99.90
38458;DHT22;24239;48.058;10.486;2022-08-30T02:56:27;12.70;99.90
38458;DHT22;24239;48.058;10.486;2022-08-30T02:58:53;12.70;99.90
38458;DHT22;24239;48.058;10.486;2022-08-30T03:01:19;12.70;99.90
38458;DHT22;24239;48.058;10.486;2022-08-30T03:03:45;12.70;99.90
38458;DHT22;24239;48.058;10.486;2022-08-30T03:06:12;12.60;99.90
38458;DHT22;24239;48.058;10.486;2022-08-30T03:08:39;12.70;99.90
38458;DHT22;24239;48.058;10.486;2022-08-30T03:11:05;12.60;99.90
38458;DHT22;24239;48.058;10.486;2022-08-30T03:13:31;12.60;99.90
38458;DHT22;24239;48.058;10.486;2022-08-30T03:15:57;12.60;99.90
38458;DHT22;24239;48.058;10.486;2022-08-30T03:18:23;12.50;99.90
38458;DHT22;24239;48.058;10.486;2022-08-30T03:20:52;12.60;99.90
38458;DHT22;24239;48.058;10.486;2022-08-30T03:23:18;12.60;99.90
38458;DHT22;24239;48.058;10.486;2022-08-30T03:25:44;12.60;99.90
38458;DHT22;24239;48.058;10.486;2022-08-30T03:28:10;12.50;99.90
38458;DHT22;24239;48.058;10.486;2022-08-30T03:30:36;12.50;99.90
38458;DHT22;24239;48.058;10.486;2022-08-30T03:33:02;12.50;99.90
38458;DHT22;24239;48.058;10.486;2022-08-30T03:35:28;12.50;99.90
38458;DHT22;24239;48.058;10.486;2022-08-30T03:37:56;12.40;99.90
38458;DHT22;24239;48.058;10.486;2022-08-30T03:40:27;12.50;99.90
38458;DHT22;24239;48.058;10.486;2022-08-30T03:42:56;12.40;99.90
38458;DHT22;24239;48.058;10.486;2022-08-30T03:45:22;12.40;99.90
38458;DHT22;24239;48.058;10.486;2022-08-30T03:47:49;12.50;99.90
38458;DHT22;24239;48.058;10.486;2022-08-30T03:50:15;12.40;99.90
38458;DHT22;24239;48.058;10.486;2022-08-30T03:52:44;12.40;99.90
38458;DHT22;24239;48.058;10.486;2022-08-30T03:55:10;12.30;99.90
38458;DHT22;24239;48.058;10.486;2022-08-30T03:57:37;12.30;99.90
38458;DHT22;24239;48.058;10.486;2022-08-30T04:00:04;12.40;99.90
38458;DHT22;24239;48.058;10.486;2022-08-30T04:02:31;12.30;99.90
38458;DHT22;24239;48.058;10.486;2022-08-30T04:05:06;12.30;99.90
38458;DHT22;24239;48.058;10.486;2022-08-30T04:07:35;12.30;99.90
38458;DHT22;24239;48.058;10.486;2022-08-30T04:10:02;12.30;99.90
38458;DHT22;24239;48.058;10.486;2022-08-30T04:12:28;12.20;99.90
38458;DHT22;24239;48.058;10.486;2022-08-30T04:14:54;12.20;99.90
38458;DHT22;24239;48.058;10.486;2022-08-30T04:17:20;12.20;99.90
38458;DHT22;24239;48.058;10.486;2022-08-30T04:19:46;12.20;99.90
38458;DHT22;24239;48.058;10.486;2022-08-30T04:22:12;12.20;99.90
38458;DHT22;24239;48.058;10.486;2022-08-30T04:24:38;12.20;99.90
38458;DHT22;24239;48.058;10.486;2022-08-30T04:27:06;12.20;99.90
38458;DHT22;24239;48.058;10.486;2022-08-30T04:29:33;12.20;99.90
38458;DHT22;24239;48.058;10.486;2022-08-30T04:31:59;12.10;99.90
38458;DHT22;24239;48.058;10.486;2022-08-30T04:34:27;12.10;99.90
38458;DHT22;24239;48.058;10.486;2022-08-30T04:36:53;12.10;99.90
38458;DHT22;24239;48.058;10.486;2022-08-30T04:39:19;12.20;99.90
38458;DHT22;24239;48.058;10.486;2022-08-30T04:41:45;12.20;99.90
38458;DHT22;24239;48.058;10.486;2022-08-30T04:44:11;12.20;99.90
38458;DHT22;24239;48.058;10.486;2022-08-30T04:46:37;12.20;99.90
38458;DHT22;24239;48.058;10.486;2022-08-30T04:49:04;12.20;99.90
38458;DHT22;24239;48.058;10.486;2022-08-30T04:51:30;12.10;99.90
38458;DHT22;24239;48.058;10.486;2022-08-30T04:53:56;12.20;99.90
38458;DHT22;24239;48.058;10.486;2022-08-30T04:56:23;12.20;99.90
38458;DHT22;24239;48.058;10.486;2022-08-30T04:58:52;12.30;99.90
38458;DHT22;24239;48.058;10.486;2022-08-30T05:01:22;12.20;99.90
38458;DHT22;24239;48.058;10.486;2022-08-30T05:03:49;12.30;99.90
38458;DHT22;24239;48.058;10.486;2022-08-30T05:06:19;12.30;99.90
38458;DHT22;24239;48.058;10.486;2022-08-30T05:08:45;12.30;99.90
38458;DHT22;24239;48.058;10.486;2022-08-30T05:11:11;12.40;99.90
38458;DHT22;24239;48.058;10.486;2022-08-30T05:13:37;12.40;99.90
38458;DHT22;24239;48.058;10.486;2022-08-30T05:16:05;12.40;99.90
38458;DHT22;24239;48.058;10.486;2022-08-30T05:18:31;12.50;99.90
38458;DHT22;24239;48.058;10.486;2022-08-30T05:21:12;12.60;99.90
38458;DHT22;24239;48.058;10.486;2022-08-30T05:23:39;12.70;99.90
38458;DHT22;24239;48.058;10.486;2022-08-30T05:26:08;12.70;99.90
38458;DHT22;24239;48.058;10.486;2022-08-30T05:28:35;12.80;99.90
38458;DHT22;24239;48.058;10.486;2022-08-30T05:31:01;12.80;99.90
38458;DHT22;24239;48.058;10.486;2022-08-30T05:33:27;12.90;99.90
38458;DHT22;24239;48.058;10.486;2022-08-30T05:35:53;13.00;99.90
38458;DHT22;24239;48.058;10.486;2022-08-30T05:38:19;13.10;99.90
38458;DHT22;24239;48.058;10.486;2022-08-30T05:40:45;13.30;99.90
38458;DHT22;24239;48.058;10.486;2022-08-30T05:43:10;13.60;99.90
38458;DHT22;24239;48.058;10.486;2022-08-30T05:45:38;13.90;99.90
38458;DHT22;24239;48.058;10.486;2022-08-30T05:48:04;14.10;99.90
38458;DHT22;24239;48.058;10.486;2022-08-30T05:50:30;14.20;99.90
38458;DHT22;24239;48.058;10.486;2022-08-30T05:52:58;14.30;99.90
38458;DHT22;24239;48.058;10.486;2022-08-30T05:55:24;14.40;99.90
38458;DHT22;24239;48.058;10.486;2022-08-30T05:57:50;14.60;99.90
38458;DHT22;24239;48.058;10.486;2022-08-30T06:00:17;14.70;99.90
38458;DHT22;24239;48.058;10.486;2022-08-30T06:02:43;14.80;99.90
38458;DHT22;24239;48.058;10.486;2022-08-30T06:05:11;14.90;99.90
38458;DHT22;24239;48.058;10.486;2022-08-30T06:07:37;15.00;99.90
38458;DHT22;24239;48.058;10.486;2022-08-30T06:10:06;15.10;99.90
38458;DHT22;24239;48.058;10.486;2022-08-30T06:12:32;15.20;99.90
38458;DHT22;24239;48.058;10.486;2022-08-30T06:14:57;15.30;99.90
38458;DHT22;24239;48.058;10.486;2022-08-30T06:17:23;15.40;99.90
38458;DHT22;24239;48.058;10.486;2022-08-30T06:19:49;15.40;99.90
38458;DHT22;24239;48.058;10.486;2022-08-30T06:22:15;15.50;99.90
38458;DHT22;24239;48.058;10.486;2022-08-30T06:24:41;15.60;99.90
38458;DHT22;24239;48.058;10.486;2022-08-30T06:27:08;15.60;99.90
38458;DHT22;24239;48.058;10.486;2022-08-30T06:29:34;15.70;99.90
38458;DHT22;24239;48.058;10.486;2022-08-30T06:32:00;15.80;99.90
38458;DHT22;24239;48.058;10.486;2022-08-30T06:34:26;15.90;99.90
38458;DHT22;24239;48.058;10.486;2022-08-30T06:36:52;16.00;99.90
38458;DHT22;24239;48.058;10.486;2022-08-30T06:39:18;16.10;99.90
38458;DHT22;24239;48.058;10.486;2022-08-30T06:41:44;16.20;99.90
38458;DHT22;24239;48.058;10.486;2022-08-30T06:44:13;16.30;99.90
38458;DHT22;24239;48.058;10.486;2022-08-30T06:46:39;16.50;99.90
38458;DHT22;24239;48.058;10.486;2022-08-30T06:49:08;16.60;99.90
38458;DHT22;24239;48.058;10.486;2022-08-30T06:51:37;16.60;99.90
38458;DHT22;24239;48.058;10.486;2022-08-30T06:54:04;16.70;99.90
38458;DHT22;24239;48.058;10.486;2022-08-30T06:56:30;16.80;99.90
38458;DHT22;24239;48.058;10.486;2022-08-30T06:58:56;16.90;99.90
38458;DHT22;24239;48.058;10.486;2022-08-30T07:01:24;16.90;99.90
38458;DHT22;24239;48.058;10.486;2022-08-30T07:03:51;17.00;99.90
38458;DHT22;24239;48.058;10.486;2022-08-30T07:06:17;17.10;99.90
38458;DHT22;24239;48.058;10.486;2022-08-30T07:08:44;17.10;99.90
38458;DHT22;24239;48.058;10.486;2022-08-30T07:11:10;17.30;99.90
38458;DHT22;24239;48.058;10.486;2022-08-30T07:13:36;17.30;99.90
38458;DHT22;24239;48.058;10.486;2022-08-30T07:16:12;17.40;99.90
38458;DHT22;24239;48.058;10.486;2022-08-30T07:18:39;17.50;99.90
38458;DHT22;24239;48.058;10.486;2022-08-30T07:23:54;17.70;99.90
38458;DHT22;24239;48.058;10.486;2022-08-30T07:26:25;17.70;99.90
38458;DHT22;24239;48.058;10.486;2022-08-30T07:28:52;17.80;99.90
38458;DHT22;24239;48.058;10.486;2022-08-30T07:31:18;17.90;99.90
38458;DHT22;24239;48.058;10.486;2022-08-30T07:33:47;17.90;99.90
38458;DHT22;24239;48.058;10.486;2022-08-30T07:36:13;18.00;99.90
38458;DHT22;24239;48.058;10.486;2022-08-30T07:38:42;18.10;99.90
38458;DHT22;24239;48.058;10.486;2022-08-30T07:41:08;18.20;99.90
38458;DHT22;24239;48.058;10.486;2022-08-30T07:43:35;18.40;99.90
38458;DHT22;24239;48.058;10.486;2022-08-30T07:46:04;18.50;99.90
38458;DHT22;24239;48.058;10.486;2022-08-30T07:48:30;18.60;99.90
38458;DHT22;24239;48.058;10.486;2022-08-30T07:50:57;18.70;99.90
38458;DHT22;24239;48.058;10.486;2022-08-30T07:53:23;18.80;99.90
38458;DHT22;24239;48.058;10.486;2022-08-30T07:55:51;18.80;99.90
38458;DHT22;24239;48.058;10.486;2022-08-30T07:58:17;19.00;99.90
38458;DHT22;24239;48.058;10.486;2022-08-30T08:00:44;19.10;99.90
38458;DHT22;24239;48.058;10.486;2022-08-30T08:03:10;19.20;99.90
38458;DHT22;24239;48.058;10.486;2022-08-30T08:05:41;19.40;99.90
38458;DHT22;24239;48.058;10.486;2022-08-30T08:08:08;19.50;99.90
38458;DHT22;24239;48.058;10.486;2022-08-30T08:10:36;19.80;99.90
38458;DHT22;24239;48.058;10.486;2022-08-30T08:13:05;19.80;99.90
38458;DHT22;24239;48.058;10.486;2022-08-30T08:15:31;20.00;99.90
38458;DHT22;24239;48.058;10.486;2022-08-30T08:17:57;20.10;99.90
38458;DHT22;24239;48.058;10.486;2022-08-30T08:20:23;20.30;99.90
38458;DHT22;24239;48.058;10.486;2022-08-30T08:22:51;20.40;99.90
38458;DHT22;24239;48.058;10.486;2022-08-30T08:25:17;20.50;99.90
38458;DHT22;24239;48.058;10.486;2022-08-30T08:27:46;20.60;99.90
38458;DHT22;24239;48.058;10.486;2022-08-30T08:30:12;20.70;99.90
38458;DHT22;24239;48.058;10.486;2022-08-30T08:32:38;20.90;99.90
38458;DHT22;24239;48.058;10.486;2022-08-30T08:35:05;21.00;99.90
38458;DHT22;24239;48.058;10.486;2022-08-30T08:37:31;21.30;99.90
38458;DHT22;24239;48.058;10.486;2022-08-30T08:39:56;21.30;99.90
38458;DHT22;24239;48.058;10.486;2022-08-30T08:45:10;21.70;99.90
38458;DHT22;24239;48.058;10.486;2022-08-30T08:50:19;21.80;99.90
38458;DHT22;24239;48.058;10.486;2022-08-30T08:53:00;21.90;99.90
38458;DHT22;24239;48.058;10.486;2022-08-30T08:55:49;22.00;99.90
38458;DHT22;24239;48.058;10.486;2022-08-30T08:58:26;22.10;99.90
38458;DHT22;24239;48.058;10.486;2022-08-30T09:00:56;22.10;99.90
38458;DHT22;24239;48.058;10.486;2022-08-30T09:03:26;22.20;99.90
38458;DHT22;24239;48.058;10.486;2022-08-30T09:05:53;22.30;99.90
38458;DHT22;24239;48.058;10.486;2022-08-30T09:08:20;22.40;99.90
38458;DHT22;24239;48.058;10.486;2022-08-30T09:10:54;22.50;99.90
38458;DHT22;24239;48.058;10.486;2022-08-30T09:13:23;22.50;99.90
38458;DHT22;24239;48.058;10.486;2022-08-30T09:15:54;22.70;99.90
38458;DHT22;24239;48.058;10.486;2022-08-30T09:21:06;22.80;99.90
38458;DHT22;24239;48.058;10.486;2022-08-30T09:23:32;22.80;99.90
38458;DHT22;24239;48.058;10.486;2022-08-30T09:26:06;23.00;99.90
38458;DHT22;24239;48.058;10.486;2022-08-30T09:28:50;23.00;99.90
38458;DHT22;24239;48.058;10.486;2022-08-30T09:31:26;23.00;99.90
38458;DHT22;24239;48.058;10.486;2022-08-30T09:39:03;23.10;99.90
38458;DHT22;24239;48.058;10.486;2022-08-30T09:41:39;23.10;99.90
38458;DHT22;24239;48.058;10.486;2022-08-30T09:44:15;23.20;99.90
38458;DHT22;24239;48.058;10.486;2022-08-30T09:46:56;23.20;99.90
38458;DHT22;24239;48.058;10.486;2022-08-30T09:49:42;23.10;99.90
38458;DHT22;24239;48.058;10.486;2022-08-30T10:06:14;23.50;99.90
38458;DHT22;24239;48.058;10.486;2022-08-30T10:11:53;23.50;99.90
38458;DHT22;24239;48.058;10.486;2022-08-30T10:22:14;23.70;99.90
38458;DHT22;24239;48.058;10.486;2022-08-30T10:24:48;23.70;99.90
38458;DHT22;24239;48.058;10.486;2022-08-30T10:30:22;23.80;99.90
38458;DHT22;24239;48.058;10.486;2022-08-30T10:33:05;23.70;99.90
38458;DHT22;24239;48.058;10.486;2022-08-30T10:35:38;23.70;99.90
38458;DHT22;24239;48.058;10.486;2022-08-30T10:38:17;23.70;99.90
38458;DHT22;24239;48.058;10.486;2022-08-30T10:40:52;23.70;99.90
38458;DHT22;24239;48.058;10.486;2022-08-30T10:49:28;23.80;99.90
38458;DHT22;24239;48.058;10.486;2022-08-30T10:54:52;23.90;98.90
38458;DHT22;24239;48.058;10.486;2022-08-30T10:57:19;23.80;99.60
38458;DHT22;24239;48.058;10.486;2022-08-30T10:59:53;23.80;99.90
38458;DHT22;24239;48.058;10.486;2022-08-30T11:05:37;24.00;99.60
38458;DHT22;24239;48.058;10.486;2022-08-30T11:08:37;24.00;98.80
38458;DHT22;24239;48.058;10.486;2022-08-30T11:14:07;24.00;97.80
38458;DHT22;24239;48.058;10.486;2022-08-30T11:16:40;24.00;99.10
38458;DHT22;24239;48.058;10.486;2022-08-30T11:19:26;24.10;96.90
38458;DHT22;24239;48.058;10.486;2022-08-30T11:22:21;24.10;97.30
38458;DHT22;24239;48.058;10.486;2022-08-30T11:25:09;24.10;98.30
38458;DHT22;24239;48.058;10.486;2022-08-30T11:33:28;24.20;98.60
38458;DHT22;24239;48.058;10.486;2022-08-30T11:35:54;24.30;98.80
38458;DHT22;24239;48.058;10.486;2022-08-30T11:46:15;24.40;98.30
38458;DHT22;24239;48.058;10.486;2022-08-30T11:48:49;24.60;98.10
38458;DHT22;24239;48.058;10.486;2022-08-30T11:53:58;24.70;98.20
38458;DHT22;24239;48.058;10.486;2022-08-30T11:56:40;24.70;98.50
38458;DHT22;24239;48.058;10.486;2022-08-30T11:59:26;24.80;98.10
38458;DHT22;24239;48.058;10.486;2022-08-30T12:01:55;24.90;97.40
38458;DHT22;24239;48.058;10.486;2022-08-30T12:04:42;24.90;97.50
38458;DHT22;24239;48.058;10.486;2022-08-30T12:07:09;25.00;97.40
38458;DHT22;24239;48.058;10.486;2022-08-30T12:12:10;25.20;97.80
38458;DHT22;24239;48.058;10.486;2022-08-30T12:14:52;25.40;97.90
38458;DHT22;24239;48.058;10.486;2022-08-30T12:20:10;25.40;96.30
38458;DHT22;24239;48.058;10.486;2022-08-30T12:22:38;25.30;97.20
38458;DHT22;24239;48.058;10.486;2022-08-30T12:25:18;25.50;97.60
38458;DHT22;24239;48.058;10.486;2022-08-30T12:27:44;25.60;96.70
38458;DHT22;24239;48.058;10.486;2022-08-30T12:30:10;25.70;97.30
38458;DHT22;24239;48.058;10.486;2022-08-30T12:32:46;25.60;96.70
38458;DHT22;24239;48.058;10.486;2022-08-30T12:35:22;25.50;96.10
38458;DHT22;24239;48.058;10.486;2022-08-30T12:38:02;25.30;95.60
38458;DHT22;24239;48.058;10.486;2022-08-30T12:40:31;25.30;96.00
38458;DHT22;24239;48.058;10.486;2022-08-30T12:43:20;25.30;96.30
38458;DHT22;24239;48.058;10.486;2022-08-30T12:45:47;25.40;96.80
38458;DHT22;24239;48.058;10.486;2022-08-30T12:48:15;25.40;96.10
38458;DHT22;24239;48.058;10.486;2022-08-30T12:50:49;25.40;95.50
38458;DHT22;24239;48.058;10.486;2022-08-30T12:53:28;25.50;95.80
38458;DHT22;24239;48.058;10.486;2022-08-30T12:56:13;25.60;95.40
38458;DHT22;24239;48.058;10.486;2022-08-30T13:04:09;25.70;95.20
38458;DHT22;24239;48.058;10.486;2022-08-30T13:09:39;25.60;94.20
38458;DHT22;24239;48.058;10.486;2022-08-30T13:12:26;25.60;95.20
38458;DHT22;24239;48.058;10.486;2022-08-30T13:14:52;25.60;95.60
38458;DHT22;24239;48.058;10.486;2022-08-30T13:17:33;25.70;95.40
38458;DHT22;24239;48.058;10.486;2022-08-30T13:25:25;25.60;95.80
38458;DHT22;24239;48.058;10.486;2022-08-30T13:27:51;25.60;96.30
38458;DHT22;24239;48.058;10.486;2022-08-30T13:30:17;25.50;95.80
38458;DHT22;24239;48.058;10.486;2022-08-30T13:32:43;25.40;96.40
38458;DHT22;24239;48.058;10.486;2022-08-30T13:35:10;25.40;96.80
38458;DHT22;24239;48.058;10.486;2022-08-30T13:37:43;25.40;96.50
38458;DHT22;24239;48.058;10.486;2022-08-30T13:40:11;25.50;96.20
38458;DHT22;24239;48.058;10.486;2022-08-30T13:42:37;25.60;96.10
38458;DHT22;24239;48.058;10.486;2022-08-30T13:45:05;25.60;95.70
38458;DHT22;24239;48.058;10.486;2022-08-30T13:47:31;25.50;94.90
38458;DHT22;24239;48.058;10.486;2022-08-30T13:49:57;25.40;95.30
38458;DHT22;24239;48.058;10.486;2022-08-30T13:52:26;25.30;94.80
38458;DHT22;24239;48.058;10.486;2022-08-30T13:54:53;25.30;95.50
38458;DHT22;24239;48.058;10.486;2022-08-30T13:57:26;25.50;95.90
38458;DHT22;24239;48.058;10.486;2022-08-30T13:59:52;25.50;95.70
38458;DHT22;24239;48.058;10.486;2022-08-30T14:02:18;25.50;95.60
38458;DHT22;24239;48.058;10.486;2022-08-30T14:04:44;25.50;95.70
38458;DHT22;24239;48.058;10.486;2022-08-30T14:07:09;25.50;95.60
38458;DHT22;24239;48.058;10.486;2022-08-30T14:09:36;25.40;95.40
38458;DHT22;24239;48.058;10.486;2022-08-30T14:12:02;25.40;95.40
38458;DHT22;24239;48.058;10.486;2022-08-30T14:14:28;25.40;95.30
38458;DHT22;24239;48.058;10.486;2022-08-30T14:16:54;25.30;95.80
38458;DHT22;24239;48.058;10.486;2022-08-30T14:19:20;25.20;95.40
38458;DHT22;24239;48.058;10.486;2022-08-30T14:21:47;25.20;95.30
38458;DHT22;24239;48.058;10.486;2022-08-30T14:24:13;25.30;95.80
38458;DHT22;24239;48.058;10.486;2022-08-30T14:26:44;25.30;94.60
38458;DHT22;24239;48.058;10.486;2022-08-30T14:29:14;25.40;95.20
38458;DHT22;24239;48.058;10.486;2022-08-30T14:31:41;25.40;95.00
38458;DHT22;24239;48.058;10.486;2022-08-30T14:34:08;25.30;95.10
38458;DHT22;24239;48.058;10.486;2022-08-30T14:36:36;25.30;94.90
38458;DHT22;24239;48.058;10.486;2022-08-30T14:39:07;25.30;95.50
38458;DHT22;24239;48.058;10.486;2022-08-30T14:41:34;25.40;95.30
38458;DHT22;24239;48.058;10.486;2022-08-30T14:44:00;25.40;94.80
38458;DHT22;24239;48.058;10.486;2022-08-30T14:46:26;25.30;94.70
38458;DHT22;24239;48.058;10.486;2022-08-30T14:48:57;25.40;94.10
38458;DHT22;24239;48.058;10.486;2022-08-30T14:51:23;25.30;94.30
38458;DHT22;24239;48.058;10.486;2022-08-30T14:53:51;25.30;94.60
38458;DHT22;24239;48.058;10.486;2022-08-30T14:56:19;25.20;94.00
38458;DHT22;24239;48.058;10.486;2022-08-30T14:58:50;25.10;94.40
38458;DHT22;24239;48.058;10.486;2022-08-30T15:01:17;25.10;94.60
38458;DHT22;24239;48.058;10.486;2022-08-30T15:03:43;25.20;95.00
38458;DHT22;24239;48.058;10.486;2022-08-30T15:06:10;25.20;94.30
38458;DHT22;24239;48.058;10.486;2022-08-30T15:08:36;25.20;94.60
38458;DHT22;24239;48.058;10.486;2022-08-30T15:11:07;25.20;94.40
38458;DHT22;24239;48.058;10.486;2022-08-30T15:13:34;25.30;95.10
38458;DHT22;24239;48.058;10.486;2022-08-30T15:16:00;25.30;94.90
38458;DHT22;24239;48.058;10.486;2022-08-30T15:18:25;25.40;94.80
38458;DHT22;24239;48.058;10.486;2022-08-30T15:20:51;25.40;94.30
38458;DHT22;24239;48.058;10.486;2022-08-30T15:23:18;25.40;93.80
38458;DHT22;24239;48.058;10.486;2022-08-30T15:25:44;25.30;94.10
38458;DHT22;24239;48.058;10.486;2022-08-30T15:28:10;25.40;94.00
38458;DHT22;24239;48.058;10.486;2022-08-30T15:30:36;25.40;94.20
38458;DHT22;24239;48.058;10.486;2022-08-30T15:33:02;25.50;94.30
38458;DHT22;24239;48.058;10.486;2022-08-30T15:35:28;25.50;94.40
38458;DHT22;24239;48.058;10.486;2022-08-30T15:37:57;25.40;94.20
38458;DHT22;24239;48.058;10.486;2022-08-30T15:40:22;25.50;94.40
38458;DHT22;24239;48.058;10.486;2022-08-30T15:42:49;25.40;94.40
38458;DHT22;24239;48.058;10.486;2022-08-30T15:45:15;25.40;94.40
38458;DHT22;24239;48.058;10.486;2022-08-30T15:47:40;25.40;94.20
38458;DHT22;24239;48.058;10.486;2022-08-30T15:50:06;25.40;93.60
38458;DHT22;24239;48.058;10.486;2022-08-30T15:52:32;25.30;94.10
38458;DHT22;24239;48.058;10.486;2022-08-30T15:54:58;25.30;94.20
38458;DHT22;24239;48.058;10.486;2022-08-30T15:57:25;25.40;94.90
38458;DHT22;24239;48.058;10.486;2022-08-30T15:59:51;25.50;95.10
38458;DHT22;24239;48.058;10.486;2022-08-30T16:02:19;25.50;94.30
38458;DHT22;24239;48.058;10.486;2022-08-30T16:04:45;25.60;94.30
38458;DHT22;24239;48.058;10.486;2022-08-30T16:07:11;25.80;94.10
38458;DHT22;24239;48.058;10.486;2022-08-30T16:09:37;26.00;93.70
38458;DHT22;24239;48.058;10.486;2022-08-30T16:12:05;26.30;93.60
38458;DHT22;24239;48.058;10.486;2022-08-30T16:14:32;26.50;93.50
38458;DHT22;24239;48.058;10.486;2022-08-30T16:16:58;26.70;93.10
38458;DHT22;24239;48.058;10.486;2022-08-30T16:19:24;27.00;92.80
38458;DHT22;24239;48.058;10.486;2022-08-30T16:21:50;26.90;93.10
38458;DHT22;24239;48.058;10.486;2022-08-30T16:24:15;27.10;92.90
38458;DHT22;24239;48.058;10.486;2022-08-30T16:26:43;27.40;92.80
38458;DHT22;24239;48.058;10.486;2022-08-30T16:29:12;27.30;92.60
38458;DHT22;24239;48.058;10.486;2022-08-30T16:31:42;27.30;92.80
38458;DHT22;24239;48.058;10.486;2022-08-30T16:34:09;27.20;92.40
38458;DHT22;24239;48.058;10.486;2022-08-30T16:36:35;27.00;92.60
38458;DHT22;24239;48.058;10.486;2022-08-30T16:39:07;27.10;93.00
38458;DHT22;24239;48.058;10.486;2022-08-30T16:41:33;27.00;92.70
38458;DHT22;24239;48.058;10.486;2022-08-30T16:43:59;26.70;93.00
38458;DHT22;24239;48.058;10.486;2022-08-30T16:46:25;26.80;93.20
38458;DHT22;24239;48.058;10.486;2022-08-30T16:48:51;26.60;92.90
38458;DHT22;24239;48.058;10.486;2022-08-30T16:51:21;26.30;93.20
38458;DHT22;24239;48.058;10.486;2022-08-30T16:53:48;26.10;93.40
38458;DHT22;24239;48.058;10.486;2022-08-30T16:56:17;25.80;93.50
38458;DHT22;24239;48.058;10.486;2022-08-30T16:58:44;25.40;93.90